Acomita, New Mexico
Current Conditions -  °F | °C
As of 11:37 PM on Tuesday 25 Nov 2014 (Local Time) from KGNT Reporting Station
Clear Clear  
Wind Chill: 19°   Ceiling: Unl
Heat Index: 28°   Visibility: 10mi
Dew Point:   Wind: 10mph
Humidity: 31%   Direction: 300°WNW
Pressure: 30.36"   Gusts: NA
Location:  35.0806°N, 107.597°W
Report Text: KGNT 260637Z AUTO 30009KT 10SM CLR M02/M17 A3036 RMK AO2
Loading
Personal Weather Stations






























Interactive Weather Map New forecast layout! Learn more

10-Day Weather Forecast

Advertisements
Track Severe Weather on mobile